<?xml version="1.0" encoding="UTF-8"?>
<gpx version="1.1" creator="https://www.youtrack.es" xsi:schemaLocation="http://www.topografix.com/GPX/1/1 http://www.topografix.com/GPX/1/1/gpx.xsd http://www.garmin.com/xmlschemas/GpxExtensions/v3 http://www.garmin.com/xmlschemas/GpxExtensionsv3.xsd http://www.garmin.com/xmlschemas/TrackPointExtension/v1 http://www.garmin.com/xmlschemas/TrackPointExtensionv1.xsd" xmlns:gpxtpx="http://www.garmin.com/xmlschemas/TrackPointExtension/v1" xmlns:gpxx="http://www.garmin.com/xmlschemas/GpxExtensions/v3" xmlns:xsi="http://www.w3.org/2001/XMLSchema-instance">
  <metadata>
    <link href="https://www.youtrack.es">
      <text>YouTrack.es</text>
    </link>
    <time>2026-05-09T01:34:58Z</time>
  </metadata>
  <trk>
    <src>https://www.youtrack.es</src>
    <link href="https://www.youtrack.es/ruta/36-vilaplana-la-mussara">
      <text>YouTrack.es</text>
    </link>
    <trkseg>
      <trkpt lat="41.22831900" lon="1.031528000">
        <ele>365.00000</ele>
        <time>2010-01-01T00:00:00Z</time>
      </trkpt>
      <trkpt lat="41.22862200" lon="1.031545000">
        <ele>366.00000</ele>
        <time>2010-01-01T00:00:12Z</time>
      </trkpt>
      <trkpt lat="41.22890900" lon="1.031781000">
        <ele>363.00000</ele>
        <time>2010-01-01T00:00:25Z</time>
      </trkpt>
      <trkpt lat="41.22899900" lon="1.032937000">
        <ele>370.00000</ele>
        <time>2010-01-01T00:01:00Z</time>
      </trkpt>
      <trkpt lat="41.22921600" lon="1.033601000">
        <ele>375.00000</ele>
        <time>2010-01-01T00:01:22Z</time>
      </trkpt>
      <trkpt lat="41.22966800" lon="1.034196000">
        <ele>378.00000</ele>
        <time>2010-01-01T00:01:47Z</time>
      </trkpt>
      <trkpt lat="41.23013500" lon="1.034461000">
        <ele>377.00000</ele>
        <time>2010-01-01T00:02:08Z</time>
      </trkpt>
      <trkpt lat="41.23161600" lon="1.034571000">
        <ele>382.00000</ele>
        <time>2010-01-01T00:03:07Z</time>
      </trkpt>
      <trkpt lat="41.23245600" lon="1.033854000">
        <ele>394.00000</ele>
        <time>2010-01-01T00:03:47Z</time>
      </trkpt>
      <trkpt lat="41.23549000" lon="1.033090000">
        <ele>417.00000</ele>
        <time>2010-01-01T00:05:51Z</time>
      </trkpt>
      <trkpt lat="41.235486" lon="1.033125">
        <ele>415.986</ele>
      </trkpt>
      <trkpt lat="41.235727" lon="1.032333">
        <ele>418.938</ele>
      </trkpt>
      <trkpt lat="41.236899" lon="1.03189">
        <ele>431.37</ele>
      </trkpt>
      <trkpt lat="41.237067" lon="1.030605">
        <ele>438.417</ele>
      </trkpt>
      <trkpt lat="41.237373" lon="1.030463">
        <ele>444.807999999999879</ele>
      </trkpt>
      <trkpt lat="41.237524" lon="1.030576">
        <ele>449.025</ele>
      </trkpt>
      <trkpt lat="41.237601" lon="1.030268">
        <ele>453.084</ele>
      </trkpt>
      <trkpt lat="41.237726" lon="1.030499">
        <ele>458.251</ele>
      </trkpt>
      <trkpt lat="41.237752" lon="1.030319">
        <ele>460.246</ele>
      </trkpt>
      <trkpt lat="41.23894" lon="1.029549">
        <ele>482.248000000000104</ele>
      </trkpt>
      <trkpt lat="41.239347" lon="1.029432">
        <ele>497.083</ele>
      </trkpt>
      <trkpt lat="41.24027" lon="1.029507">
        <ele>538.718</ele>
      </trkpt>
      <trkpt lat="41.240554" lon="1.029812">
        <ele>544.284</ele>
      </trkpt>
      <trkpt lat="41.240768" lon="1.030816">
        <ele>570.487</ele>
      </trkpt>
      <trkpt lat="41.240962" lon="1.03082">
        <ele>570.042</ele>
      </trkpt>
      <trkpt lat="41.240952" lon="1.030945">
        <ele>571.426</ele>
      </trkpt>
      <trkpt lat="41.241121" lon="1.030751">
        <ele>571.708</ele>
      </trkpt>
      <trkpt lat="41.241434" lon="1.030969">
        <ele>578.84</ele>
      </trkpt>
      <trkpt lat="41.241945" lon="1.029579">
        <ele>598.639</ele>
      </trkpt>
      <trkpt lat="41.242635" lon="1.029352">
        <ele>626.596</ele>
      </trkpt>
      <trkpt lat="41.242993" lon="1.028991">
        <ele>635.691</ele>
      </trkpt>
      <trkpt lat="41.243982" lon="1.028836">
        <ele>658.013</ele>
      </trkpt>
      <trkpt lat="41.244156" lon="1.028502">
        <ele>665.448</ele>
      </trkpt>
      <trkpt lat="41.244276" lon="1.028893">
        <ele>680.213</ele>
      </trkpt>
      <trkpt lat="41.243649" lon="1.029478">
        <ele>685.899</ele>
      </trkpt>
      <trkpt lat="41.244327" lon="1.029364">
        <ele>702.441</ele>
      </trkpt>
      <trkpt lat="41.24454" lon="1.029071">
        <ele>702.181</ele>
      </trkpt>
      <trkpt lat="41.244883" lon="1.028972">
        <ele>706.309</ele>
      </trkpt>
      <trkpt lat="41.245271" lon="1.029311">
        <ele>718.908</ele>
      </trkpt>
      <trkpt lat="41.24577" lon="1.029483">
        <ele>725.496</ele>
      </trkpt>
      <trkpt lat="41.246254" lon="1.029369">
        <ele>729.245</ele>
      </trkpt>
      <trkpt lat="41.246495" lon="1.028799">
        <ele>737.622</ele>
      </trkpt>
      <trkpt lat="41.246706" lon="1.028731">
        <ele>750.717</ele>
      </trkpt>
      <trkpt lat="41.246812" lon="1.027745">
        <ele>783.939</ele>
      </trkpt>
      <trkpt lat="41.246886" lon="1.02763">
        <ele>788.164</ele>
      </trkpt>
      <trkpt lat="41.246979" lon="1.027771">
        <ele>796.359</ele>
      </trkpt>
      <trkpt lat="41.247027" lon="1.02752">
        <ele>800.955</ele>
      </trkpt>
      <trkpt lat="41.247311" lon="1.02758">
        <ele>813.757</ele>
      </trkpt>
      <trkpt lat="41.247581" lon="1.028024">
        <ele>834.7</ele>
      </trkpt>
      <trkpt lat="41.248168" lon="1.028381">
        <ele>851.519999999999868</ele>
      </trkpt>
      <trkpt lat="41.248489" lon="1.028276">
        <ele>858.708</ele>
      </trkpt>
      <trkpt lat="41.248795" lon="1.028393">
        <ele>865.457000000000107</ele>
      </trkpt>
      <trkpt lat="41.248864" lon="1.028664">
        <ele>867.346</ele>
      </trkpt>
      <trkpt lat="41.249234" lon="1.028743">
        <ele>879.343</ele>
      </trkpt>
      <trkpt lat="41.249911" lon="1.028619">
        <ele>899.668</ele>
      </trkpt>
      <trkpt lat="41.250066" lon="1.028752">
        <ele>906.73</ele>
      </trkpt>
      <trkpt lat="41.250684" lon="1.028787">
        <ele>934.915</ele>
      </trkpt>
      <trkpt lat="41.251191" lon="1.028312">
        <ele>956.04</ele>
      </trkpt>
      <trkpt lat="41.251115" lon="1.028968">
        <ele>976.316</ele>
      </trkpt>
      <trkpt lat="41.251243" lon="1.028683">
        <ele>984.846999999999866</ele>
      </trkpt>
      <trkpt lat="41.251446" lon="1.028965">
        <ele>990.729</ele>
      </trkpt>
      <trkpt lat="41.251432" lon="1.028653">
        <ele>992.521</ele>
      </trkpt>
      <trkpt lat="41.25143320" lon="1.028648470">
        <ele>973.00000</ele>
        <time>2010-01-01T00:00:00Z</time>
      </trkpt>
      <trkpt lat="41.25167700" lon="1.028067000">
        <ele>967.00000</ele>
        <time>2010-01-01T00:00:20Z</time>
      </trkpt>
      <trkpt lat="41.25205200" lon="1.027704000">
        <ele>973.00000</ele>
        <time>2010-01-01T00:00:38Z</time>
      </trkpt>
      <trkpt lat="41.25214900" lon="1.027052000">
        <ele>968.00000</ele>
        <time>2010-01-01T00:00:58Z</time>
      </trkpt>
      <trkpt lat="41.25264200" lon="1.026126000">
        <ele>964.00000</ele>
        <time>2010-01-01T00:01:32Z</time>
      </trkpt>
      <trkpt lat="41.25305400" lon="1.024925000">
        <ele>953.00000</ele>
        <time>2010-01-01T00:02:12Z</time>
      </trkpt>
      <trkpt lat="41.25371200" lon="1.024609000">
        <ele>946.00000</ele>
        <time>2010-01-01T00:02:40Z</time>
      </trkpt>
      <trkpt lat="41.25432500" lon="1.024615000">
        <ele>941.00000</ele>
        <time>2010-01-01T00:03:05Z</time>
      </trkpt>
      <trkpt lat="41.25429200" lon="1.024782000">
        <ele>943.00000</ele>
        <time>2010-01-01T00:03:10Z</time>
      </trkpt>
      <trkpt lat="41.25432200" lon="1.024526000">
        <ele>940.00000</ele>
        <time>2010-01-01T00:03:18Z</time>
      </trkpt>
      <trkpt lat="41.25467700" lon="1.024466000">
        <ele>942.00000</ele>
        <time>2010-01-01T00:03:32Z</time>
      </trkpt>
      <trkpt lat="41.25479600" lon="1.023970000">
        <ele>941.00000</ele>
        <time>2010-01-01T00:03:48Z</time>
      </trkpt>
      <trkpt lat="41.25456900" lon="1.023128000">
        <ele>929.00000</ele>
        <time>2010-01-01T00:04:14Z</time>
      </trkpt>
      <trkpt lat="41.25455400" lon="1.022300000">
        <ele>921.00000</ele>
        <time>2010-01-01T00:04:39Z</time>
      </trkpt>
      <trkpt lat="41.25425000" lon="1.021549000">
        <ele>904.00000</ele>
        <time>2010-01-01T00:05:05Z</time>
      </trkpt>
      <trkpt lat="41.25420300" lon="1.021740000">
        <ele>898.00000</ele>
        <time>2010-01-01T00:05:11Z</time>
      </trkpt>
      <trkpt lat="41.25408200" lon="1.021639000">
        <ele>893.00000</ele>
        <time>2010-01-01T00:05:17Z</time>
      </trkpt>
      <trkpt lat="41.25392900" lon="1.020706000">
        <ele>899.00000</ele>
        <time>2010-01-01T00:05:46Z</time>
      </trkpt>
      <trkpt lat="41.25311600" lon="1.019106000">
        <ele>891.00000</ele>
        <time>2010-01-01T00:06:44Z</time>
      </trkpt>
      <trkpt lat="41.25267300" lon="1.018825000">
        <ele>875.00000</ele>
        <time>2010-01-01T00:07:03Z</time>
      </trkpt>
      <trkpt lat="41.25222000" lon="1.018937000">
        <ele>859.00000</ele>
        <time>2010-01-01T00:07:22Z</time>
      </trkpt>
      <trkpt lat="41.25188700" lon="1.018862000">
        <ele>856.00000</ele>
        <time>2010-01-01T00:07:35Z</time>
      </trkpt>
      <trkpt lat="41.25176600" lon="1.019036000">
        <ele>847.00000</ele>
        <time>2010-01-01T00:07:42Z</time>
      </trkpt>
      <trkpt lat="41.25161000" lon="1.018945000">
        <ele>845.00000</ele>
        <time>2010-01-01T00:07:49Z</time>
      </trkpt>
      <trkpt lat="41.25074000" lon="1.018338000">
        <ele>849.00000</ele>
        <time>2010-01-01T00:08:29Z</time>
      </trkpt>
      <trkpt lat="41.24990700" lon="1.017177000">
        <ele>849.00000</ele>
        <time>2010-01-01T00:09:17Z</time>
      </trkpt>
      <trkpt lat="41.24966000" lon="1.016303000">
        <ele>844.00000</ele>
        <time>2010-01-01T00:09:45Z</time>
      </trkpt>
      <trkpt lat="41.24984200" lon="1.016055000">
        <ele>849.00000</ele>
        <time>2010-01-01T00:09:55Z</time>
      </trkpt>
      <trkpt lat="41.24991900" lon="1.015274000">
        <ele>850.00000</ele>
        <time>2010-01-01T00:10:19Z</time>
      </trkpt>
      <trkpt lat="41.24978300" lon="1.012590000">
        <ele>848.00000</ele>
        <time>2010-01-01T00:11:40Z</time>
      </trkpt>
      <trkpt lat="41.24955500" lon="1.012115000">
        <ele>847.00000</ele>
        <time>2010-01-01T00:11:57Z</time>
      </trkpt>
      <trkpt lat="41.24876900" lon="1.009010000">
        <ele>853.00000</ele>
        <time>2010-01-01T00:13:36Z</time>
      </trkpt>
      <trkpt lat="41.24802500" lon="1.008315000">
        <ele>846.00000</ele>
        <time>2010-01-01T00:14:12Z</time>
      </trkpt>
      <trkpt lat="41.24762600" lon="1.007718000">
        <ele>846.00000</ele>
        <time>2010-01-01T00:14:36Z</time>
      </trkpt>
      <trkpt lat="41.24714900" lon="1.007504000">
        <ele>841.00000</ele>
        <time>2010-01-01T00:14:56Z</time>
      </trkpt>
      <trkpt lat="41.24721100" lon="1.007396000">
        <ele>844.00000</ele>
        <time>2010-01-01T00:15:00Z</time>
      </trkpt>
      <trkpt lat="41.24690300" lon="1.007338000">
        <ele>841.00000</ele>
        <time>2010-01-01T00:15:13Z</time>
      </trkpt>
      <trkpt lat="41.24680900" lon="1.007443000">
        <ele>838.00000</ele>
        <time>2010-01-01T00:15:18Z</time>
      </trkpt>
      <trkpt lat="41.24637300" lon="1.007250000">
        <ele>840.00000</ele>
        <time>2010-01-01T00:15:36Z</time>
      </trkpt>
      <trkpt lat="41.24594000" lon="1.007278000">
        <ele>839.00000</ele>
        <time>2010-01-01T00:15:53Z</time>
      </trkpt>
      <trkpt lat="41.24589600" lon="1.007137000">
        <ele>842.00000</ele>
        <time>2010-01-01T00:15:58Z</time>
      </trkpt>
      <trkpt lat="41.24460300" lon="1.006983000">
        <ele>837.00000</ele>
        <time>2010-01-01T00:16:50Z</time>
      </trkpt>
      <trkpt lat="41.24351000" lon="1.006459000">
        <ele>835.00000</ele>
        <time>2010-01-01T00:17:36Z</time>
      </trkpt>
      <trkpt lat="41.24310600" lon="1.005988000">
        <ele>836.00000</ele>
        <time>2010-01-01T00:17:58Z</time>
      </trkpt>
      <trkpt lat="41.24278100" lon="1.005262000">
        <ele>834.00000</ele>
        <time>2010-01-01T00:18:23Z</time>
      </trkpt>
      <trkpt lat="41.24270100" lon="1.003826000">
        <ele>834.00000</ele>
        <time>2010-01-01T00:19:07Z</time>
      </trkpt>
      <trkpt lat="41.24188800" lon="1.003885000">
        <ele>827.00000</ele>
        <time>2010-01-01T00:19:39Z</time>
      </trkpt>
      <trkpt lat="41.24160000" lon="1.004426000">
        <ele>824.00000</ele>
        <time>2010-01-01T00:19:59Z</time>
      </trkpt>
      <trkpt lat="41.24093300" lon="1.004754000">
        <ele>825.00000</ele>
        <time>2010-01-01T00:20:28Z</time>
      </trkpt>
      <trkpt lat="41.24056500" lon="1.005126000">
        <ele>826.00000</ele>
        <time>2010-01-01T00:20:46Z</time>
      </trkpt>
      <trkpt lat="41.23975300" lon="1.006266000">
        <ele>825.00000</ele>
        <time>2010-01-01T00:21:34Z</time>
      </trkpt>
      <trkpt lat="41.23962400" lon="1.006792000">
        <ele>822.00000</ele>
        <time>2010-01-01T00:21:50Z</time>
      </trkpt>
      <trkpt lat="41.23973600" lon="1.007281000">
        <ele>819.00000</ele>
        <time>2010-01-01T00:22:06Z</time>
      </trkpt>
      <trkpt lat="41.24173400" lon="1.008950000">
        <ele>795.00000</ele>
        <time>2010-01-01T00:23:40Z</time>
      </trkpt>
      <trkpt lat="41.24194800" lon="1.008893000">
        <ele>794.00000</ele>
        <time>2010-01-01T00:23:49Z</time>
      </trkpt>
      <trkpt lat="41.24232000" lon="1.008237000">
        <ele>799.00000</ele>
        <time>2010-01-01T00:24:13Z</time>
      </trkpt>
      <trkpt lat="41.24255900" lon="1.008134000">
        <ele>798.00000</ele>
        <time>2010-01-01T00:24:24Z</time>
      </trkpt>
      <trkpt lat="41.24337000" lon="1.008613000">
        <ele>794.00000</ele>
        <time>2010-01-01T00:24:59Z</time>
      </trkpt>
      <trkpt lat="41.24359700" lon="1.009261000">
        <ele>789.00000</ele>
        <time>2010-01-01T00:25:21Z</time>
      </trkpt>
      <trkpt lat="41.24437100" lon="1.010071000">
        <ele>777.00000</ele>
        <time>2010-01-01T00:26:00Z</time>
      </trkpt>
      <trkpt lat="41.24483700" lon="1.009671000">
        <ele>783.00000</ele>
        <time>2010-01-01T00:26:22Z</time>
      </trkpt>
      <trkpt lat="41.24538400" lon="1.009625000">
        <ele>774.00000</ele>
        <time>2010-01-01T00:26:44Z</time>
      </trkpt>
      <trkpt lat="41.24563700" lon="1.009399000">
        <ele>776.00000</ele>
        <time>2010-01-01T00:26:56Z</time>
      </trkpt>
      <trkpt lat="41.24604100" lon="1.009534000">
        <ele>774.00000</ele>
        <time>2010-01-01T00:27:13Z</time>
      </trkpt>
      <trkpt lat="41.24584400" lon="1.009776000">
        <ele>765.00000</ele>
        <time>2010-01-01T00:27:24Z</time>
      </trkpt>
      <trkpt lat="41.24611600" lon="1.010173000">
        <ele>756.00000</ele>
        <time>2010-01-01T00:27:40Z</time>
      </trkpt>
      <trkpt lat="41.24582600" lon="1.010373000">
        <ele>747.00000</ele>
        <time>2010-01-01T00:27:53Z</time>
      </trkpt>
      <trkpt lat="41.24581500" lon="1.010229000">
        <ele>751.00000</ele>
        <time>2010-01-01T00:27:57Z</time>
      </trkpt>
      <trkpt lat="41.24557700" lon="1.010269000">
        <ele>752.00000</ele>
        <time>2010-01-01T00:28:07Z</time>
      </trkpt>
      <trkpt lat="41.24447900" lon="1.011250000">
        <ele>724.00000</ele>
        <time>2010-01-01T00:29:00Z</time>
      </trkpt>
      <trkpt lat="41.24435500" lon="1.011420000">
        <ele>715.00000</ele>
        <time>2010-01-01T00:29:07Z</time>
      </trkpt>
      <trkpt lat="41.24465200" lon="1.011849000">
        <ele>703.00000</ele>
        <time>2010-01-01T00:29:25Z</time>
      </trkpt>
      <trkpt lat="41.24446500" lon="1.012147000">
        <ele>698.00000</ele>
        <time>2010-01-01T00:29:36Z</time>
      </trkpt>
      <trkpt lat="41.24396000" lon="1.012135000">
        <ele>690.00000</ele>
        <time>2010-01-01T00:29:56Z</time>
      </trkpt>
      <trkpt lat="41.24347900" lon="1.011894000">
        <ele>685.00000</ele>
        <time>2010-01-01T00:30:17Z</time>
      </trkpt>
      <trkpt lat="41.24377500" lon="1.012430000">
        <ele>668.00000</ele>
        <time>2010-01-01T00:30:37Z</time>
      </trkpt>
      <trkpt lat="41.24314200" lon="1.012534000">
        <ele>646.00000</ele>
        <time>2010-01-01T00:31:03Z</time>
      </trkpt>
      <trkpt lat="41.24280400" lon="1.012201000">
        <ele>644.00000</ele>
        <time>2010-01-01T00:31:19Z</time>
      </trkpt>
      <trkpt lat="41.24268900" lon="1.011849000">
        <ele>652.00000</ele>
        <time>2010-01-01T00:31:31Z</time>
      </trkpt>
      <trkpt lat="41.24254200" lon="1.011818000">
        <ele>651.00000</ele>
        <time>2010-01-01T00:31:37Z</time>
      </trkpt>
      <trkpt lat="41.24239900" lon="1.012095000">
        <ele>646.00000</ele>
        <time>2010-01-01T00:31:47Z</time>
      </trkpt>
      <trkpt lat="41.24253900" lon="1.012128000">
        <ele>643.00000</ele>
        <time>2010-01-01T00:31:53Z</time>
      </trkpt>
      <trkpt lat="41.24239600" lon="1.012091000">
        <ele>646.00000</ele>
        <time>2010-01-01T00:31:59Z</time>
      </trkpt>
      <trkpt lat="41.24216600" lon="1.012737000">
        <ele>628.00000</ele>
        <time>2010-01-01T00:32:20Z</time>
      </trkpt>
      <trkpt lat="41.24158900" lon="1.012940000">
        <ele>628.00000</ele>
        <time>2010-01-01T00:32:44Z</time>
      </trkpt>
      <trkpt lat="41.24145100" lon="1.013462000">
        <ele>617.00000</ele>
        <time>2010-01-01T00:33:01Z</time>
      </trkpt>
      <trkpt lat="41.24103800" lon="1.013956000">
        <ele>607.00000</ele>
        <time>2010-01-01T00:33:23Z</time>
      </trkpt>
      <trkpt lat="41.24057100" lon="1.013666000">
        <ele>618.00000</ele>
        <time>2010-01-01T00:33:44Z</time>
      </trkpt>
      <trkpt lat="41.24026200" lon="1.013782000">
        <ele>617.00000</ele>
        <time>2010-01-01T00:33:56Z</time>
      </trkpt>
      <trkpt lat="41.23986100" lon="1.015159000">
        <ele>595.00000</ele>
        <time>2010-01-01T00:34:41Z</time>
      </trkpt>
      <trkpt lat="41.23954000" lon="1.015397000">
        <ele>590.00000</ele>
        <time>2010-01-01T00:34:56Z</time>
      </trkpt>
      <trkpt lat="41.23823800" lon="1.015857000">
        <ele>570.00000</ele>
        <time>2010-01-01T00:35:49Z</time>
      </trkpt>
      <trkpt lat="41.23752300" lon="1.015577000">
        <ele>564.00000</ele>
        <time>2010-01-01T00:36:19Z</time>
      </trkpt>
      <trkpt lat="41.23742000" lon="1.016220000">
        <ele>554.00000</ele>
        <time>2010-01-01T00:36:39Z</time>
      </trkpt>
      <trkpt lat="41.23768200" lon="1.016619000">
        <ele>543.00000</ele>
        <time>2010-01-01T00:36:55Z</time>
      </trkpt>
      <trkpt lat="41.23767300" lon="1.016887000">
        <ele>537.00000</ele>
        <time>2010-01-01T00:37:03Z</time>
      </trkpt>
      <trkpt lat="41.23746100" lon="1.017035000">
        <ele>531.00000</ele>
        <time>2010-01-01T00:37:13Z</time>
      </trkpt>
      <trkpt lat="41.23692600" lon="1.016913000">
        <ele>538.00000</ele>
        <time>2010-01-01T00:37:34Z</time>
      </trkpt>
      <trkpt lat="41.23679200" lon="1.017206000">
        <ele>535.00000</ele>
        <time>2010-01-01T00:37:45Z</time>
      </trkpt>
      <trkpt lat="41.23714500" lon="1.017184000">
        <ele>529.00000</ele>
        <time>2010-01-01T00:37:59Z</time>
      </trkpt>
      <trkpt lat="41.23753100" lon="1.017744000">
        <ele>515.00000</ele>
        <time>2010-01-01T00:38:22Z</time>
      </trkpt>
      <trkpt lat="41.23789000" lon="1.017876000">
        <ele>515.00000</ele>
        <time>2010-01-01T00:38:37Z</time>
      </trkpt>
      <trkpt lat="41.23817200" lon="1.018192000">
        <ele>506.00000</ele>
        <time>2010-01-01T00:38:51Z</time>
      </trkpt>
      <trkpt lat="41.23780500" lon="1.018432000">
        <ele>499.00000</ele>
        <time>2010-01-01T00:39:08Z</time>
      </trkpt>
      <trkpt lat="41.23744400" lon="1.018435000">
        <ele>497.00000</ele>
        <time>2010-01-01T00:39:22Z</time>
      </trkpt>
      <trkpt lat="41.23744100" lon="1.018882000">
        <ele>490.00000</ele>
        <time>2010-01-01T00:39:36Z</time>
      </trkpt>
      <trkpt lat="41.23708400" lon="1.018954000">
        <ele>495.00000</ele>
        <time>2010-01-01T00:39:50Z</time>
      </trkpt>
      <trkpt lat="41.23662200" lon="1.019567000">
        <ele>494.00000</ele>
        <time>2010-01-01T00:40:16Z</time>
      </trkpt>
      <trkpt lat="41.23639400" lon="1.020263000">
        <ele>487.00000</ele>
        <time>2010-01-01T00:40:39Z</time>
      </trkpt>
      <trkpt lat="41.23603200" lon="1.020779000">
        <ele>479.00000</ele>
        <time>2010-01-01T00:41:00Z</time>
      </trkpt>
      <trkpt lat="41.23592000" lon="1.022032000">
        <ele>467.00000</ele>
        <time>2010-01-01T00:41:38Z</time>
      </trkpt>
      <trkpt lat="41.23554300" lon="1.022268000">
        <ele>475.00000</ele>
        <time>2010-01-01T00:41:55Z</time>
      </trkpt>
      <trkpt lat="41.23456800" lon="1.024899000">
        <ele>453.00000</ele>
        <time>2010-01-01T00:43:23Z</time>
      </trkpt>
      <trkpt lat="41.23322400" lon="1.025810000">
        <ele>450.00000</ele>
        <time>2010-01-01T00:44:24Z</time>
      </trkpt>
      <trkpt lat="41.23317100" lon="1.026289000">
        <ele>436.00000</ele>
        <time>2010-01-01T00:44:38Z</time>
      </trkpt>
      <trkpt lat="41.23261600" lon="1.026832000">
        <ele>429.00000</ele>
        <time>2010-01-01T00:45:06Z</time>
      </trkpt>
      <trkpt lat="41.23260600" lon="1.027257000">
        <ele>422.00000</ele>
        <time>2010-01-01T00:45:19Z</time>
      </trkpt>
      <trkpt lat="41.23216100" lon="1.028128000">
        <ele>409.00000</ele>
        <time>2010-01-01T00:45:50Z</time>
      </trkpt>
      <trkpt lat="41.23107000" lon="1.029355000">
        <ele>394.00000</ele>
        <time>2010-01-01T00:46:48Z</time>
      </trkpt>
      <trkpt lat="41.23072000" lon="1.030523000">
        <ele>385.00000</ele>
        <time>2010-01-01T00:47:25Z</time>
      </trkpt>
      <trkpt lat="41.23026700" lon="1.031070000">
        <ele>380.00000</ele>
        <time>2010-01-01T00:47:50Z</time>
      </trkpt>
      <trkpt lat="41.22960700" lon="1.031617000">
        <ele>370.00000</ele>
        <time>2010-01-01T00:48:21Z</time>
      </trkpt>
      <trkpt lat="41.22882600" lon="1.031697000">
        <ele>364.00000</ele>
        <time>2010-01-01T00:48:52Z</time>
      </trkpt>
      <trkpt lat="41.22835300" lon="1.031574000">
        <ele>365.00000</ele>
        <time>2010-01-01T00:49:12Z</time>
      </trkpt>
    </trkseg>
  </trk>
</gpx>
